createdAt,value
2019-03-05T00:00:08.280Z,0.00
2019-03-05T00:01:13.787Z,0.00
2019-03-05T00:02:19.292Z,0.00
2019-03-05T00:03:24.802Z,0.00
2019-03-05T00:04:30.310Z,0.00
2019-03-05T00:05:35.816Z,0.00
2019-03-05T00:06:41.329Z,0.00
2019-03-05T00:07:46.833Z,0.00
2019-03-05T00:08:52.341Z,0.00
2019-03-05T00:09:57.853Z,0.00
2019-03-05T00:11:03.368Z,0.00
2019-03-05T00:12:08.882Z,0.00
2019-03-05T00:13:14.377Z,0.00
2019-03-05T00:14:19.886Z,0.00
2019-03-05T00:15:25.400Z,0.00
2019-03-05T00:16:30.904Z,0.00
2019-03-05T00:17:36.402Z,0.00
2019-03-05T00:18:41.918Z,0.00
2019-03-05T00:19:47.424Z,0.00
2019-03-05T00:20:52.936Z,0.00
2019-03-05T00:21:58.440Z,0.00
2019-03-05T00:23:03.950Z,0.00
2019-03-05T00:24:09.460Z,0.00
2019-03-05T00:25:14.976Z,0.00
2019-03-05T00:26:20.476Z,0.00
2019-03-05T00:27:25.981Z,0.00
2019-03-05T00:28:31.499Z,0.00
2019-03-05T00:29:37.002Z,0.00
2019-03-05T00:30:42.509Z,0.00
2019-03-05T00:31:48.016Z,0.00
2019-03-05T00:32:53.533Z,0.00
2019-03-05T00:33:59.034Z,0.00
2019-03-05T00:35:04.544Z,0.00
2019-03-05T00:36:10.048Z,0.00
2019-03-05T00:37:15.560Z,0.00
2019-03-05T00:38:21.092Z,0.00
2019-03-05T00:39:26.580Z,0.00
2019-03-05T00:40:32.084Z,0.00
2019-03-05T00:41:37.603Z,0.00
2019-03-05T00:42:43.100Z,0.00
2019-03-05T00:43:48.609Z,0.00
2019-03-05T00:44:54.124Z,0.00
2019-03-05T00:45:59.631Z,0.00
2019-03-05T00:47:05.135Z,0.00
2019-03-05T00:48:11.444Z,0.00
2019-03-05T00:49:16.147Z,0.00
2019-03-05T00:50:21.659Z,0.00
2019-03-05T00:51:27.167Z,0.00
2019-03-05T00:52:32.673Z,0.00
2019-03-05T00:53:38.183Z,0.00
2019-03-05T00:54:43.689Z,0.00
2019-03-05T00:55:50.032Z,0.00
2019-03-05T00:56:54.715Z,0.00
2019-03-05T00:58:00.227Z,0.00
2019-03-05T00:59:05.726Z,0.00
2019-03-05T01:00:11.233Z,0.00
2019-03-05T01:01:16.741Z,0.00
2019-03-05T01:02:22.248Z,0.00
2019-03-05T01:03:27.754Z,0.00
2019-03-05T01:04:33.265Z,0.00
2019-03-05T01:05:38.770Z,0.00
2019-03-05T01:06:44.278Z,0.00
2019-03-05T01:07:49.789Z,0.00
2019-03-05T01:08:55.302Z,0.00
2019-03-05T01:10:00.812Z,0.00
2019-03-05T01:11:06.328Z,0.00
2019-03-05T01:12:11.853Z,0.00
2019-03-05T01:13:17.334Z,0.00
2019-03-05T01:14:22.841Z,0.00
2019-03-05T01:15:28.349Z,0.00
2019-03-05T01:16:33.858Z,0.00
2019-03-05T01:17:39.374Z,0.00
2019-03-05T01:18:44.876Z,0.00
2019-03-05T01:19:50.387Z,0.00
2019-03-05T01:20:55.900Z,0.00
2019-03-05T01:22:01.408Z,0.00
2019-03-05T01:23:06.904Z,0.00
2019-03-05T01:24:12.419Z,0.00
2019-03-05T01:25:17.929Z,0.00
2019-03-05T01:26:23.431Z,0.00
2019-03-05T01:27:28.938Z,0.00
2019-03-05T01:28:34.451Z,0.00
2019-03-05T01:29:39.956Z,0.00
2019-03-05T01:30:45.464Z,0.00
2019-03-05T01:31:50.971Z,0.00
2019-03-05T01:32:56.480Z,0.00
2019-03-05T01:34:01.994Z,0.00
2019-03-05T01:35:07.497Z,0.00
2019-03-05T01:36:13.003Z,0.00
2019-03-05T01:37:18.510Z,0.00
2019-03-05T01:38:24.025Z,0.00
2019-03-05T01:39:29.528Z,0.00
2019-03-05T01:40:35.039Z,0.00
2019-03-05T01:41:40.545Z,0.00
2019-03-05T01:42:46.051Z,0.00
2019-03-05T01:43:51.560Z,0.00
2019-03-05T01:44:57.071Z,0.00
2019-03-05T01:46:02.586Z,0.00
2019-03-05T01:47:08.089Z,0.00
2019-03-05T01:48:13.596Z,0.00
2019-03-05T01:49:19.102Z,0.00
2019-03-05T01:50:24.617Z,0.00
2019-03-05T01:51:30.120Z,0.00
2019-03-05T01:52:35.629Z,0.00
2019-03-05T01:53:41.136Z,0.00
2019-03-05T01:54:46.643Z,0.00
2019-03-05T01:55:52.153Z,0.00
2019-03-05T01:56:57.656Z,0.00
2019-03-05T01:58:03.178Z,0.00
2019-03-05T01:59:08.681Z,0.00
2019-03-05T02:00:14.190Z,0.00
2019-03-05T02:01:19.696Z,0.00
2019-03-05T02:02:25.198Z,0.00
2019-03-05T02:03:30.735Z,0.00
2019-03-05T02:04:36.223Z,0.00
2019-03-05T02:05:41.725Z,0.00
2019-03-05T02:06:47.230Z,0.00
2019-03-05T02:07:52.742Z,0.00
2019-03-05T02:08:58.248Z,0.00
2019-03-05T02:10:03.759Z,0.00
2019-03-05T02:11:09.265Z,0.00
2019-03-05T02:12:14.776Z,0.00
2019-03-05T02:13:20.287Z,0.00
2019-03-05T02:14:25.792Z,0.00
2019-03-05T02:15:31.300Z,0.00
2019-03-05T02:16:36.810Z,0.00
2019-03-05T02:17:42.318Z,0.00
2019-03-05T02:18:47.823Z,0.00
2019-03-05T02:19:53.339Z,0.00
2019-03-05T02:20:58.844Z,0.00
2019-03-05T02:22:04.350Z,0.00
2019-03-05T02:23:09.867Z,0.00
2019-03-05T02:24:15.369Z,0.00
2019-03-05T02:25:20.875Z,0.00
2019-03-05T02:26:26.382Z,0.00
2019-03-05T02:27:31.889Z,0.00
2019-03-05T02:28:37.405Z,0.00
2019-03-05T02:29:42.908Z,0.00
2019-03-05T02:30:48.421Z,0.00
2019-03-05T02:31:53.924Z,0.00
2019-03-05T02:32:59.443Z,0.00
2019-03-05T02:34:04.942Z,0.00
2019-03-05T02:35:10.448Z,0.00
2019-03-05T02:36:15.956Z,0.00
2019-03-05T02:37:21.478Z,0.00
2019-03-05T02:38:26.972Z,0.00
2019-03-05T02:39:32.489Z,0.00
2019-03-05T02:40:37.987Z,0.00
2019-03-05T02:41:43.500Z,0.00
2019-03-05T02:42:49.007Z,0.00
2019-03-05T02:43:54.515Z,0.00
2019-03-05T02:45:00.019Z,0.00
2019-03-05T02:46:05.530Z,0.00
2019-03-05T02:47:11.041Z,0.00
2019-03-05T02:48:16.545Z,0.00
2019-03-05T02:49:22.062Z,0.00
2019-03-05T02:50:27.563Z,0.00
2019-03-05T02:51:33.072Z,0.00
2019-03-05T02:52:38.587Z,0.00
2019-03-05T02:53:44.087Z,0.00
2019-03-05T02:54:49.595Z,0.00
2019-03-05T02:55:55.101Z,0.00
2019-03-05T02:57:00.606Z,0.00
2019-03-05T02:58:06.121Z,0.00
2019-03-05T02:59:11.635Z,0.00
2019-03-05T03:00:17.135Z,0.00
2019-03-05T03:01:22.648Z,0.00
2019-03-05T03:02:28.150Z,0.00
2019-03-05T03:03:33.664Z,0.00
2019-03-05T03:04:39.168Z,0.00
2019-03-05T03:05:44.694Z,0.00
2019-03-05T03:06:50.191Z,0.00
2019-03-05T03:07:55.691Z,0.00
2019-03-05T03:09:01.200Z,0.00
2019-03-05T03:10:06.703Z,0.00
2019-03-05T03:11:12.212Z,0.00
2019-03-05T03:12:17.722Z,0.00
2019-03-05T03:13:23.230Z,0.00
2019-03-05T03:14:28.748Z,0.00
2019-03-05T03:15:34.243Z,0.00
2019-03-05T03:16:39.750Z,0.00
2019-03-05T03:17:45.263Z,0.00
2019-03-05T03:18:50.771Z,0.00
2019-03-05T03:19:56.278Z,0.00
2019-03-05T03:21:01.780Z,0.00
2019-03-05T03:22:07.294Z,0.00
2019-03-05T03:23:12.803Z,0.00
2019-03-05T03:24:18.310Z,0.00
2019-03-05T03:25:23.815Z,0.00
2019-03-05T03:26:29.322Z,0.00
2019-03-05T03:27:34.830Z,0.00
2019-03-05T03:28:40.336Z,20.00
2019-03-05T03:29:45.847Z,20.00
2019-03-05T03:30:51.355Z,20.00
2019-03-05T03:31:56.862Z,24.00
2019-03-05T03:33:02.373Z,24.00
2019-03-05T03:34:07.879Z,20.00
2019-03-05T03:35:13.389Z,20.00
2019-03-05T03:36:18.908Z,20.00
2019-03-05T03:37:24.400Z,20.00
2019-03-05T03:38:29.910Z,20.00
2019-03-05T03:39:35.423Z,20.00
2019-03-05T03:40:40.932Z,20.00
2019-03-05T03:41:46.443Z,20.00
2019-03-05T03:42:51.948Z,16.00
2019-03-05T03:43:57.448Z,16.00
2019-03-05T03:45:02.957Z,16.00
2019-03-05T03:46:08.466Z,20.00
2019-03-05T03:47:13.977Z,16.00
2019-03-05T03:48:19.478Z,16.00
2019-03-05T03:49:24.993Z,16.00
2019-03-05T03:50:30.511Z,16.00
2019-03-05T03:51:36.002Z,16.00
2019-03-05T03:52:41.510Z,16.00
2019-03-05T03:53:47.018Z,20.00
2019-03-05T03:54:52.523Z,20.00
2019-03-05T03:55:58.035Z,20.00
2019-03-05T03:57:03.541Z,20.00
2019-03-05T03:58:09.046Z,20.00
2019-03-05T03:59:14.562Z,20.00
2019-03-05T04:00:20.070Z,20.00
2019-03-05T04:01:25.568Z,20.00
2019-03-05T04:02:31.089Z,20.00
2019-03-05T04:03:36.586Z,20.00
2019-03-05T04:04:42.096Z,16.00
2019-03-05T04:05:47.604Z,20.00
2019-03-05T04:06:53.115Z,20.00
2019-03-05T04:07:58.617Z,20.00
2019-03-05T04:09:04.128Z,16.00
2019-03-05T04:10:09.634Z,20.00
2019-03-05T04:11:15.145Z,20.00
2019-03-05T04:12:20.650Z,16.00
2019-03-05T04:13:26.164Z,16.00
2019-03-05T04:14:31.662Z,20.00
2019-03-05T04:15:37.173Z,20.00
2019-03-05T04:16:42.677Z,16.00
2019-03-05T04:17:48.188Z,16.00
2019-03-05T04:18:53.692Z,16.00
2019-03-05T04:19:59.204Z,16.00
2019-03-05T04:21:04.706Z,16.00
2019-03-05T04:22:10.214Z,16.00
2019-03-05T04:23:15.723Z,16.00
2019-03-05T04:24:21.233Z,16.00
2019-03-05T04:25:26.753Z,16.00
2019-03-05T04:26:32.250Z,16.00
2019-03-05T04:27:37.753Z,16.00
2019-03-05T04:28:43.263Z,16.00
2019-03-05T04:29:48.772Z,16.00
2019-03-05T04:30:54.277Z,16.00
2019-03-05T04:31:59.792Z,16.00
2019-03-05T04:33:05.295Z,16.00
2019-03-05T04:34:10.800Z,16.00
2019-03-05T04:35:16.304Z,16.00
2019-03-05T04:36:21.815Z,16.00
2019-03-05T04:37:27.325Z,16.00
2019-03-05T04:38:32.831Z,16.00
2019-03-05T04:39:38.338Z,16.00
2019-03-05T04:40:43.909Z,16.00
2019-03-05T04:41:49.354Z,16.00
2019-03-05T04:42:54.865Z,16.00
2019-03-05T04:44:00.368Z,16.00
2019-03-05T04:45:05.876Z,16.00
2019-03-05T04:46:11.384Z,16.00
2019-03-05T04:47:16.895Z,16.00
2019-03-05T04:48:22.401Z,16.00
2019-03-05T04:49:27.982Z,16.00
2019-03-05T04:50:33.418Z,16.00
2019-03-05T04:51:38.925Z,16.00
2019-03-05T04:52:44.431Z,16.00
2019-03-05T04:53:49.940Z,16.00
2019-03-05T04:54:55.445Z,16.00
2019-03-05T04:56:00.954Z,16.00
2019-03-05T04:57:06.465Z,16.00
2019-03-05T04:58:11.971Z,16.00
2019-03-05T04:59:17.474Z,16.00
2019-03-05T05:00:22.986Z,16.00
2019-03-05T05:01:28.499Z,16.00
2019-03-05T05:02:34.000Z,16.00
2019-03-05T05:03:39.511Z,16.00
2019-03-05T05:04:45.027Z,0.00
2019-03-05T05:05:50.525Z,0.00
2019-03-05T05:06:56.030Z,0.00
2019-03-05T05:08:01.536Z,0.00
2019-03-05T05:09:07.050Z,0.00
2019-03-05T05:10:12.557Z,0.00
2019-03-05T05:11:18.064Z,0.00
2019-03-05T05:12:23.568Z,0.00
2019-03-05T05:13:29.080Z,0.00
2019-03-05T05:14:34.591Z,0.00
2019-03-05T05:15:40.097Z,0.00
2019-03-05T05:16:45.603Z,0.00
2019-03-05T05:17:51.113Z,0.00
2019-03-05T05:18:56.618Z,0.00
2019-03-05T05:20:02.125Z,0.00
2019-03-05T05:21:07.635Z,0.00
2019-03-05T05:22:13.149Z,0.00
2019-03-05T05:23:18.651Z,0.00
2019-03-05T05:24:24.168Z,0.00
2019-03-05T05:25:29.668Z,0.00
2019-03-05T05:26:35.173Z,0.00
2019-03-05T05:27:40.680Z,0.00
2019-03-05T05:28:46.194Z,0.00
2019-03-05T05:29:51.695Z,0.00
2019-03-05T05:30:57.201Z,0.00
2019-03-05T05:32:02.716Z,0.00
2019-03-05T05:33:08.227Z,0.00
2019-03-05T05:34:13.729Z,0.00
2019-03-05T05:35:19.238Z,0.00
2019-03-05T05:36:24.745Z,0.00
2019-03-05T05:37:30.251Z,0.00
2019-03-05T05:38:35.770Z,0.00
2019-03-05T05:39:41.267Z,0.00
2019-03-05T05:40:46.775Z,0.00
2019-03-05T05:41:52.281Z,0.00
2019-03-05T05:42:57.795Z,0.00
2019-03-05T05:44:03.295Z,0.00
2019-03-05T05:45:08.809Z,0.00
2019-03-05T05:46:14.313Z,0.00
2019-03-05T05:47:19.826Z,0.00
2019-03-05T05:48:25.333Z,0.00
2019-03-05T05:49:30.839Z,0.00
2019-03-05T05:50:36.344Z,0.00
2019-03-05T05:51:44.341Z,0.00
2019-03-05T05:52:47.363Z,0.00
2019-03-05T05:53:52.869Z,0.00
2019-03-05T05:54:58.377Z,0.00
2019-03-05T05:56:03.890Z,0.00
2019-03-05T05:57:09.391Z,0.00
2019-03-05T05:58:14.899Z,0.00
2019-03-05T05:59:20.410Z,0.00
2019-03-05T06:00:25.916Z,4.00
2019-03-05T06:01:31.421Z,4.00
2019-03-05T06:02:36.929Z,0.00
2019-03-05T06:03:42.438Z,0.00
2019-03-05T06:04:47.945Z,4.00
2019-03-05T06:05:53.452Z,4.00
2019-03-05T06:06:58.963Z,4.00
2019-03-05T06:08:04.459Z,4.00
2019-03-05T06:09:09.977Z,4.00
2019-03-05T06:10:15.484Z,4.00
2019-03-05T06:11:20.990Z,8.00
2019-03-05T06:12:26.505Z,8.00
2019-03-05T06:13:32.006Z,4.00
2019-03-05T06:14:37.517Z,8.00
2019-03-05T06:15:43.023Z,8.00
2019-03-05T06:16:48.533Z,4.00
2019-03-05T06:17:54.040Z,8.00
2019-03-05T06:18:59.547Z,8.00
2019-03-05T06:20:05.053Z,8.00
2019-03-05T06:21:10.560Z,8.00
2019-03-05T06:22:16.070Z,8.00
2019-03-05T06:23:21.575Z,8.00
2019-03-05T06:24:27.084Z,8.00
2019-03-05T06:25:32.591Z,12.00
2019-03-05T06:26:38.102Z,12.00
2019-03-05T06:27:43.610Z,8.00
2019-03-05T06:28:49.112Z,8.00
2019-03-05T06:29:54.624Z,12.00
2019-03-05T06:31:00.132Z,12.00
2019-03-05T06:32:05.637Z,12.00
2019-03-05T06:33:11.151Z,12.00
2019-03-05T06:34:16.652Z,12.00
2019-03-05T06:35:22.166Z,16.00
2019-03-05T06:36:27.664Z,12.00
2019-03-05T06:37:33.290Z,20.00
2019-03-05T06:38:38.691Z,20.00
2019-03-05T06:39:44.193Z,24.00
2019-03-05T06:40:49.704Z,24.00
2019-03-05T06:41:55.215Z,20.00
2019-03-05T06:43:00.718Z,24.00
2019-03-05T06:44:06.228Z,32.00
2019-03-05T06:45:11.735Z,32.00
2019-03-05T06:46:17.242Z,32.00
2019-03-05T06:47:22.751Z,36.00
2019-03-05T06:48:28.256Z,32.00
2019-03-05T06:49:33.771Z,36.00
2019-03-05T06:50:39.283Z,40.00
2019-03-05T06:51:44.785Z,36.00
2019-03-05T06:52:50.354Z,40.00
2019-03-05T06:53:55.804Z,32.00
2019-03-05T06:55:01.306Z,44.00
2019-03-05T06:56:06.814Z,44.00
2019-03-05T06:57:12.322Z,44.00
2019-03-05T06:58:17.831Z,44.00
2019-03-05T06:59:23.335Z,40.00
2019-03-05T07:00:28.845Z,48.00
2019-03-05T07:01:34.355Z,56.00
2019-03-05T07:02:39.859Z,60.00
2019-03-05T07:03:45.379Z,60.00
2019-03-05T07:04:50.877Z,56.00
2019-03-05T07:05:56.433Z,40.00
2019-03-05T07:07:01.891Z,44.00
2019-03-05T07:08:07.401Z,40.00
2019-03-05T07:09:12.907Z,48.00
2019-03-05T07:10:18.418Z,36.00
2019-03-05T07:11:23.924Z,36.00
2019-03-05T07:12:29.430Z,44.00
2019-03-05T07:13:34.947Z,48.00
2019-03-05T07:14:40.452Z,44.00
2019-03-05T07:15:45.966Z,56.00
2019-03-05T07:16:51.463Z,68.00
2019-03-05T07:17:56.971Z,60.00
2019-03-05T07:19:02.483Z,68.00
2019-03-05T07:20:07.990Z,76.00
2019-03-05T07:21:13.504Z,88.00
2019-03-05T07:22:19.003Z,96.00
2019-03-05T07:23:24.512Z,96.00
2019-03-05T07:24:30.018Z,100.00
2019-03-05T07:25:35.540Z,92.00
2019-03-05T07:26:41.037Z,84.00
2019-03-05T07:27:46.543Z,100.00
2019-03-05T07:28:52.059Z,92.00
2019-03-05T07:29:57.563Z,104.00
2019-03-05T07:31:03.067Z,100.00
2019-03-05T07:32:08.579Z,116.00
2019-03-05T07:33:14.085Z,148.00
2019-03-05T07:34:19.589Z,144.00
2019-03-05T07:35:25.106Z,116.00
2019-03-05T07:36:30.607Z,104.00
2019-03-05T07:37:36.118Z,108.00
2019-03-05T07:38:41.622Z,100.00
2019-03-05T07:39:47.133Z,100.00
2019-03-05T07:40:52.642Z,112.00
2019-03-05T07:41:58.151Z,108.00
2019-03-05T07:43:03.654Z,104.00
2019-03-05T07:44:09.166Z,84.00
2019-03-05T07:45:14.679Z,100.00
2019-03-05T07:46:20.177Z,96.00
2019-03-05T07:47:25.688Z,124.00
2019-03-05T07:48:31.201Z,128.00
2019-03-05T07:49:43.881Z,104.00
2019-03-05T07:50:42.211Z,136.00
2019-03-05T07:51:47.718Z,132.00
2019-03-05T07:52:53.233Z,144.00
2019-03-05T07:53:58.768Z,144.00
2019-03-05T07:55:13.298Z,144.00
2019-03-05T07:56:09.753Z,120.00
2019-03-05T07:57:15.250Z,120.00
2019-03-05T07:58:20.766Z,120.00
2019-03-05T07:59:26.282Z,140.00
2019-03-05T08:00:31.796Z,136.00
2019-03-05T08:01:37.299Z,124.00
2019-03-05T08:02:42.801Z,136.00
2019-03-05T08:03:48.308Z,176.00
2019-03-05T08:04:53.818Z,160.00
2019-03-05T08:05:59.323Z,148.00
2019-03-05T08:07:04.896Z,188.00
2019-03-05T08:08:10.341Z,164.00
2019-03-05T08:09:15.847Z,148.00
2019-03-05T08:10:21.353Z,140.00
2019-03-05T08:11:26.862Z,160.00
2019-03-05T08:12:32.372Z,136.00
2019-03-05T08:13:37.877Z,148.00
2019-03-05T08:14:43.386Z,164.00
2019-03-05T08:15:48.900Z,168.00
2019-03-05T08:16:54.401Z,184.00
2019-03-05T08:17:59.910Z,164.00
2019-03-05T08:19:05.424Z,188.00
2019-03-05T08:20:10.929Z,220.00
2019-03-05T08:21:16.433Z,256.00
2019-03-05T08:22:21.941Z,236.00
2019-03-05T08:23:27.618Z,252.00
2019-03-05T08:24:32.963Z,292.00
2019-03-05T08:25:38.466Z,264.00
2019-03-05T08:26:43.972Z,236.00
2019-03-05T08:27:50.735Z,244.00
2019-03-05T08:28:54.989Z,280.00
2019-03-05T08:30:00.502Z,320.00
2019-03-05T08:31:06.002Z,360.00
2019-03-05T08:32:11.519Z,328.00
2019-03-05T08:33:17.017Z,312.00
2019-03-05T08:34:22.528Z,276.00
2019-03-05T08:35:28.153Z,272.00
2019-03-05T08:36:33.543Z,320.00
2019-03-05T08:37:39.072Z,380.00
2019-03-05T08:38:44.560Z,412.00
2019-03-05T08:39:50.065Z,380.00
2019-03-05T08:40:55.573Z,396.00
2019-03-05T08:42:01.078Z,372.00
2019-03-05T08:43:06.599Z,396.00
2019-03-05T08:44:12.098Z,380.00
2019-03-05T08:45:28.535Z,364.00
2019-03-05T08:46:23.119Z,396.00
2019-03-05T08:47:28.622Z,436.00
2019-03-05T08:48:34.134Z,524.00
2019-03-05T08:49:39.634Z,404.00
2019-03-05T08:50:45.160Z,428.00
2019-03-05T08:51:50.660Z,356.00
2019-03-05T08:52:56.159Z,312.00
2019-03-05T08:54:01.668Z,288.00
2019-03-05T08:55:07.181Z,204.00
2019-03-05T08:56:12.702Z,180.00
2019-03-05T08:57:18.199Z,152.00
2019-03-05T08:58:23.701Z,132.00
2019-03-05T08:59:29.228Z,136.00
2019-03-05T09:00:34.715Z,156.00
2019-03-05T09:01:40.223Z,192.00
2019-03-05T09:02:49.052Z,156.00
2019-03-05T09:03:51.240Z,148.00
2019-03-05T09:04:56.746Z,140.00
2019-03-05T09:06:02.252Z,164.00
2019-03-05T09:07:07.761Z,176.00
2019-03-05T09:08:13.266Z,256.00
2019-03-05T09:09:18.779Z,296.00
2019-03-05T09:10:24.277Z,396.00
2019-03-05T09:11:29.795Z,384.00
2019-03-05T09:12:35.299Z,428.00
2019-03-05T09:13:40.808Z,352.00
2019-03-05T09:14:46.319Z,336.00
2019-03-05T09:15:51.825Z,372.00
2019-03-05T09:16:57.332Z,328.00
2019-03-05T09:18:02.838Z,368.00
2019-03-05T09:19:08.353Z,392.00
2019-03-05T09:20:13.855Z,412.00
2019-03-05T09:21:19.362Z,424.00
2019-03-05T09:22:24.871Z,388.00
2019-03-05T09:23:30.382Z,380.00
2019-03-05T09:24:35.890Z,348.00
2019-03-05T09:25:41.395Z,380.00
2019-03-05T09:26:51.222Z,408.00
2019-03-05T09:27:52.421Z,332.00
2019-03-05T09:28:57.921Z,352.00
2019-03-05T09:30:03.490Z,428.00
2019-03-05T09:31:08.938Z,392.00
2019-03-05T09:32:14.440Z,452.00
2019-03-05T09:33:19.951Z,548.00
2019-03-05T09:34:25.455Z,576.00
2019-03-05T09:35:30.962Z,608.00
2019-03-05T09:36:36.470Z,500.00
2019-03-05T09:37:41.989Z,524.00
2019-03-05T09:38:47.491Z,540.00
2019-03-05T09:39:52.996Z,588.00
2019-03-05T09:40:58.556Z,704.00
2019-03-05T09:42:04.023Z,712.00
2019-03-05T09:43:09.534Z,880.00
2019-03-05T09:44:15.031Z,692.00
2019-03-05T09:45:20.537Z,612.00
2019-03-05T09:46:26.049Z,544.00
2019-03-05T09:47:31.552Z,512.00
2019-03-05T09:48:37.061Z,448.00
2019-03-05T09:49:42.570Z,456.00
2019-03-05T09:50:48.080Z,564.00
2019-03-05T09:51:53.584Z,652.00
2019-03-05T09:52:59.093Z,448.00
2019-03-05T09:54:04.606Z,396.00
2019-03-05T09:55:10.111Z,384.00
2019-03-05T09:56:15.622Z,388.00
2019-03-05T09:57:21.132Z,408.00
2019-03-05T09:58:26.632Z,556.00
2019-03-05T09:59:32.144Z,560.00
2019-03-05T10:00:37.659Z,420.00
2019-03-05T10:01:43.163Z,352.00
2019-03-05T10:02:48.692Z,336.00
2019-03-05T10:03:54.182Z,380.00
2019-03-05T10:04:59.698Z,344.00
2019-03-05T10:06:05.197Z,428.00
2019-03-05T10:07:18.520Z,404.00
2019-03-05T10:08:16.224Z,416.00
2019-03-05T10:09:21.730Z,456.00
2019-03-05T10:10:27.232Z,328.00
2019-03-05T10:11:32.744Z,280.00
2019-03-05T10:12:38.245Z,332.00
2019-03-05T10:13:43.763Z,280.00
2019-03-05T10:14:49.266Z,252.00
2019-03-05T10:15:54.782Z,316.00
2019-03-05T10:17:00.285Z,176.00
2019-03-05T10:18:12.646Z,172.00
2019-03-05T10:19:11.294Z,144.00
2019-03-05T10:20:16.810Z,176.00
2019-03-05T10:21:22.314Z,168.00
2019-03-05T10:22:27.827Z,136.00
2019-03-05T10:23:33.333Z,400.00
2019-03-05T10:24:38.842Z,544.00
2019-03-05T10:25:44.349Z,568.00
2019-03-05T10:26:49.861Z,484.00
2019-03-05T10:27:55.371Z,500.00
2019-03-05T10:29:00.874Z,672.00
2019-03-05T10:30:06.384Z,696.00
2019-03-05T10:31:11.895Z,704.00
2019-03-05T10:32:17.407Z,804.00
2019-03-05T10:33:22.908Z,1076.00
2019-03-05T10:34:28.417Z,1232.00
2019-03-05T10:35:33.925Z,1180.00
2019-03-05T10:36:39.448Z,980.00
2019-03-05T10:37:44.946Z,772.00
2019-03-05T10:38:57.395Z,612.00
2019-03-05T10:39:55.957Z,668.00
2019-03-05T10:41:01.487Z,656.00
2019-03-05T10:42:06.979Z,620.00
2019-03-05T10:43:12.501Z,516.00
2019-03-05T10:44:17.994Z,516.00
2019-03-05T10:45:23.520Z,560.00
2019-03-05T10:46:29.017Z,664.00
2019-03-05T10:47:34.521Z,744.00
2019-03-05T10:48:40.032Z,692.00
2019-03-05T10:49:45.542Z,780.00
2019-03-05T10:50:51.049Z,596.00
2019-03-05T10:51:58.794Z,700.00
2019-03-05T10:53:02.067Z,792.00
2019-03-05T10:54:07.574Z,904.00
2019-03-05T10:55:13.104Z,812.00
2019-03-05T10:56:18.596Z,960.00
2019-03-05T10:57:24.099Z,1196.00
2019-03-05T10:58:33.891Z,1100.00
2019-03-05T10:59:35.119Z,884.00
2019-03-05T11:00:40.629Z,848.00
2019-03-05T11:01:46.154Z,1072.00
2019-03-05T11:02:51.654Z,1076.00
2019-03-05T11:03:57.159Z,888.00
2019-03-05T11:05:02.669Z,808.00
2019-03-05T11:06:08.222Z,1200.00
2019-03-05T11:07:13.682Z,1020.00
2019-03-05T11:08:19.200Z,768.00
2019-03-05T11:09:24.717Z,868.00
2019-03-05T11:10:30.209Z,672.00
2019-03-05T11:11:35.726Z,768.00
2019-03-05T11:12:41.229Z,472.00
2019-03-05T11:13:46.743Z,492.00
2019-03-05T11:14:52.246Z,548.00
2019-03-05T11:15:57.770Z,896.00
2019-03-05T11:17:03.264Z,924.00
2019-03-05T11:18:08.778Z,1176.00
2019-03-05T11:19:14.281Z,1320.00
2019-03-05T11:20:19.796Z,1288.00
2019-03-05T11:21:25.303Z,1388.00
2019-03-05T11:22:30.817Z,1304.00
2019-03-05T11:23:36.327Z,1372.00
2019-03-05T11:24:41.835Z,1184.00
2019-03-05T11:25:47.342Z,920.00
2019-03-05T11:26:52.849Z,880.00
2019-03-05T11:27:58.366Z,1008.00
2019-03-05T11:29:03.874Z,1344.00
2019-03-05T11:30:09.385Z,1284.00
2019-03-05T11:31:14.892Z,1524.00
2019-03-05T11:32:20.410Z,1132.00
2019-03-05T11:33:25.910Z,844.00
2019-03-05T11:34:31.419Z,872.00
2019-03-05T11:35:36.931Z,916.00
2019-03-05T11:36:42.442Z,688.00
2019-03-05T11:37:47.953Z,680.00
2019-03-05T11:38:53.461Z,548.00
2019-03-05T11:39:58.971Z,680.00
2019-03-05T11:41:04.482Z,960.00
2019-03-05T11:42:10.001Z,1044.00
2019-03-05T11:43:15.503Z,1428.00
2019-03-05T11:44:21.006Z,1016.00
2019-03-05T11:45:26.519Z,1092.00
2019-03-05T11:46:32.026Z,832.00
2019-03-05T11:47:37.548Z,756.00
2019-03-05T11:48:43.053Z,908.00
2019-03-05T11:49:48.564Z,872.00
2019-03-05T11:50:54.066Z,964.00
2019-03-05T11:51:59.576Z,1088.00
2019-03-05T11:53:05.086Z,928.00
2019-03-05T11:54:10.598Z,1068.00
2019-03-05T11:55:16.106Z,1492.00
2019-03-05T11:56:21.619Z,1624.00
2019-03-05T11:57:27.135Z,1548.00
2019-03-05T11:58:32.696Z,2012.00
2019-03-05T11:59:38.145Z,1916.00
2019-03-05T12:00:43.655Z,1656.00
2019-03-05T12:01:49.173Z,2028.00
2019-03-05T12:02:54.674Z,1636.00
2019-03-05T12:04:00.185Z,1364.00
2019-03-05T12:05:05.695Z,1384.00
2019-03-05T12:06:11.202Z,1956.00
2019-03-05T12:07:16.717Z,1436.00
2019-03-05T12:08:22.238Z,1756.00
2019-03-05T12:09:27.743Z,1216.00
2019-03-05T12:10:33.249Z,868.00
2019-03-05T12:11:38.758Z,888.00
2019-03-05T12:12:44.302Z,960.00
2019-03-05T12:13:49.771Z,1232.00
2019-03-05T12:14:55.300Z,1056.00
2019-03-05T12:16:00.802Z,1344.00
2019-03-05T12:17:06.307Z,1216.00
2019-03-05T12:18:11.829Z,1344.00
2019-03-05T12:19:17.330Z,956.00
2019-03-05T12:20:22.848Z,688.00
2019-03-05T12:21:28.356Z,936.00
2019-03-05T12:22:33.863Z,816.00
2019-03-05T12:23:39.371Z,720.00
2019-03-05T12:24:44.895Z,568.00
2019-03-05T12:25:50.398Z,740.00
2019-03-05T12:26:55.910Z,816.00
2019-03-05T12:28:09.779Z,524.00
2019-03-05T12:29:06.923Z,448.00
2019-03-05T12:30:12.437Z,392.00
2019-03-05T12:31:17.949Z,500.00
2019-03-05T12:32:23.457Z,612.00
2019-03-05T12:33:29.003Z,440.00
2019-03-05T12:34:34.487Z,612.00
2019-03-05T12:35:39.996Z,1240.00
2019-03-05T12:36:45.498Z,2512.00
2019-03-05T12:37:51.004Z,4708.00
2019-03-05T12:38:56.518Z,552.00
2019-03-05T12:40:02.033Z,532.00
2019-03-05T12:41:07.550Z,812.00
2019-03-05T12:42:13.043Z,46400.00
2019-03-05T12:43:18.562Z,5092.00
2019-03-05T12:44:24.086Z,1132.00
2019-03-05T12:45:29.619Z,872.00
2019-03-05T12:46:35.105Z,1360.00
2019-03-05T12:47:40.603Z,604.00
2019-03-05T12:48:46.121Z,908.00
2019-03-05T12:49:51.631Z,6464.00
2019-03-05T12:50:57.135Z,14864.00
2019-03-05T12:52:02.650Z,46272.00
2019-03-05T12:53:08.214Z,51264.00
2019-03-05T12:54:13.674Z,14708.00
2019-03-05T12:55:19.186Z,6016.00
2019-03-05T12:56:24.690Z,35680.00
2019-03-05T12:57:30.211Z,32352.00
2019-03-05T12:58:35.727Z,23520.00
2019-03-05T12:59:41.241Z,20224.00
2019-03-05T13:00:46.746Z,19808.00
2019-03-05T13:01:52.257Z,19456.00
2019-03-05T13:02:57.789Z,15108.00
2019-03-05T13:04:03.297Z,15840.00
2019-03-05T13:05:08.805Z,9644.00
2019-03-05T13:06:14.325Z,14808.00
2019-03-05T13:07:19.839Z,18848.00
2019-03-05T13:08:25.354Z,18752.00
2019-03-05T13:09:30.878Z,18816.00
2019-03-05T13:10:37.609Z,20896.00
2019-03-05T13:11:41.909Z,18720.00
2019-03-05T13:12:47.446Z,18688.00
2019-03-05T13:14:05.673Z,16672.00
2019-03-05T13:14:58.473Z,18592.00
2019-03-05T13:16:04.009Z,19712.00
2019-03-05T13:17:09.511Z,1164.00
2019-03-05T13:18:15.030Z,1028.00
2019-03-05T13:19:20.550Z,20032.00
2019-03-05T13:20:26.442Z,20128.00
2019-03-05T13:21:31.605Z,9428.00
2019-03-05T13:22:37.118Z,9404.00
2019-03-05T13:23:42.633Z,3064.00
2019-03-05T13:24:50.243Z,4936.00
2019-03-05T13:25:53.675Z,8004.00
2019-03-05T13:26:59.195Z,9096.00
2019-03-05T13:28:04.716Z,9304.00
2019-03-05T13:29:10.233Z,9524.00
2019-03-05T13:30:15.755Z,9584.00
2019-03-05T13:31:21.267Z,9772.00
2019-03-05T13:32:26.789Z,9848.00
2019-03-05T13:33:33.598Z,9924.00
2019-03-05T13:34:37.871Z,9960.00
2019-03-05T13:35:43.349Z,10052.00
2019-03-05T13:36:50.639Z,10148.00
2019-03-05T13:37:54.394Z,10212.00
2019-03-05T13:38:59.907Z,10404.00
2019-03-05T13:40:05.434Z,10452.00
2019-03-05T13:41:12.242Z,10768.00
2019-03-05T13:42:16.479Z,11008.00
2019-03-05T13:43:22.004Z,6276.00
2019-03-05T13:44:27.900Z,1360.00
2019-03-05T13:45:33.016Z,1276.00
2019-03-05T13:46:38.546Z,516.00
2019-03-05T13:47:44.055Z,396.00
2019-03-05T13:48:57.982Z,288.00
2019-03-05T13:49:57.737Z,228.00
2019-03-05T13:51:00.616Z,216.00
2019-03-05T13:52:06.148Z,196.00
2019-03-05T13:53:15.108Z,264.00
2019-03-05T13:54:17.165Z,484.00
2019-03-05T13:55:23.474Z,11224.00